Time;durP1;ratioP1;P1;durP2;ratioP2;P2;SDS_P1;SDS_P2;PMS_P1;PMS_P2;Temp;Humidity;BMP_temperature;BMP_pressure;BME280_temperature;BME280_humidity;BME280_pressure;Samples;Min_cycle;Max_cycle;Signal;HPM_P1;HPM_P2
2022/07/17 00:00:14;;;;;;;7.88;2.00;;;17.60;85.00;;;14.18;81.16;101611.34;5029978;28;20577;-78
2022/07/17 00:02:42;;;;;;;5.15;2.05;;;17.60;84.90;;;14.17;81.15;101610.50;5013059;28;20060;-78
2022/07/17 00:05:09;;;;;;;6.28;2.03;;;17.60;85.00;;;14.11;81.55;101618.56;5031073;28;20081;-78
2022/07/17 00:07:37;;;;;;;7.03;1.90;;;17.50;85.10;;;14.08;81.30;101606.94;5030815;28;20046;-78
2022/07/17 00:10:05;;;;;;;7.10;2.40;;;17.50;85.20;;;14.03;81.73;101608.53;5029774;28;20048;-78
2022/07/17 00:12:33;;;;;;;6.43;2.03;;;17.50;85.40;;;14.00;81.69;101601.53;5030604;28;20049;-78
2022/07/17 00:15:01;;;;;;;6.00;1.95;;;17.40;85.40;;;13.98;81.78;101608.22;5030721;28;20072;-78
2022/07/17 00:17:28;;;;;;;5.95;2.10;;;17.40;85.40;;;13.97;81.74;101598.31;5030584;28;20049;-78
2022/07/17 00:19:56;;;;;;;6.78;2.03;;;17.40;85.40;;;13.97;81.68;101603.78;5029853;28;20116;-78
2022/07/17 00:22:23;;;;;;;5.22;2.15;;;17.40;85.30;;;13.95;82.16;101594.91;5030403;28;20144;-78
2022/07/17 00:24:50;;;;;;;5.50;2.10;;;17.40;85.70;;;13.88;82.54;101595.63;5030429;28;20080;-78
2022/07/17 00:27:17;;;;;;;6.63;2.05;;;17.30;86.10;;;13.85;82.74;101589.66;5030223;28;20091;-78
2022/07/17 00:29:45;;;;;;;6.45;1.88;;;17.30;86.10;;;13.81;83.14;101593.78;5029696;28;20125;-78
2022/07/17 00:32:13;;;;;;;9.20;2.30;;;17.30;86.30;;;13.77;83.21;101597.91;5030346;28;20116;-78
2022/07/17 00:34:40;;;;;;;5.05;1.77;;;17.20;86.30;;;13.74;83.18;101592.78;5030351;28;20053;-78
2022/07/17 00:37:08;;;;;;;7.80;2.28;;;17.20;86.20;;;13.71;84.01;101582.19;5030289;28;20509;-78
2022/07/17 00:39:35;;;;;;;6.13;1.98;;;17.20;86.60;;;13.65;83.94;101598.31;5029185;28;20152;-78
2022/07/17 00:42:02;;;;;;;7.88;1.90;;;17.20;86.70;;;13.64;84.23;101603.97;5029785;28;20139;-78
2022/07/17 00:44:29;;;;;;;6.47;2.08;;;17.10;86.90;;;13.60;83.96;101603.47;5030363;28;20048;-78
2022/07/17 00:46:56;;;;;;;6.15;2.15;;;17.10;86.80;;;13.53;85.06;101613.41;5030561;28;20498;-78
2022/07/17 00:49:25;;;;;;;7.55;2.00;;;17.10;87.10;;;13.55;84.38;101605.88;5029687;28;20049;-78
2022/07/17 00:51:52;;;;;;;8.27;2.28;;;17.00;86.90;;;13.54;84.51;101606.06;5030266;28;20041;-79
2022/07/17 00:54:20;;;;;;;6.82;2.17;;;17.00;87.00;;;13.51;84.90;101607.25;5029958;28;20077;-78
2022/07/17 00:56:49;;;;;;;5.50;2.03;;;17.00;87.10;;;13.46;84.87;101601.47;5029127;28;20046;-78
2022/07/17 00:59:16;;;;;;;7.63;2.13;;;17.00;87.10;;;13.41;85.18;101598.41;5011169;28;20406;-78
2022/07/17 01:01:44;;;;;;;8.90;2.42;;;17.00;87.30;;;13.42;84.72;101605.56;5029662;28;20139;-78
2022/07/17 01:04:11;;;;;;;7.43;2.00;;;16.90;87.10;;;13.40;85.04;101610.38;5029860;28;20042;-78
2022/07/17 01:06:39;;;;;;;9.23;2.45;;;16.90;87.40;;;13.38;85.34;101604.22;5029926;28;20051;-78
2022/07/17 01:09:11;;;;;;;5.28;2.20;;;16.90;87.60;;;13.35;85.91;101607.34;5028990;28;20474;-78
2022/07/17 01:11:38;;;;;;;7.78;2.50;;;16.90;87.60;;;13.32;85.40;101607.69;5029754;28;20049;-77
2022/07/17 01:14:05;;;;;;;8.10;2.20;;;16.80;87.50;;;13.24;86.12;101601.16;5029700;28;20048;-77
2022/07/17 01:16:35;;;;;;;6.75;2.05;;;16.80;87.80;;;13.23;85.75;101602.22;5034160;28;20045;-78
2022/07/17 01:19:02;;;;;;;5.32;1.75;;;16.80;87.60;;;13.21;85.77;101597.94;5048676;28;20052;-77
2022/07/17 01:21:40;;;;;;;4.55;2.00;;;16.80;87.80;;;13.17;86.48;101589.22;5046544;28;20098;-77
2022/07/17 01:24:07;;;;;;;5.88;2.10;;;16.70;88.10;;;13.15;86.24;101596.75;5049551;28;20045;-78
2022/07/17 01:26:35;;;;;;;6.25;2.15;;;16.70;88.00;;;13.13;86.14;101601.53;5031689;28;20488;-77
2022/07/17 01:29:02;;;;;;;5.55;1.98;;;16.60;87.90;;;13.09;86.77;101605.66;5048813;28;20037;-78
2022/07/17 01:31:30;;;;;;;7.03;2.28;;;16.60;88.10;;;13.05;86.61;101607.88;5049505;28;20056;-78
2022/07/17 01:33:59;;;;;;;6.85;2.28;;;16.60;88.20;;;13.02;87.29;101599.16;5049429;28;20135;-77
2022/07/17 01:36:26;;;;;;;5.18;2.03;;;16.60;88.30;;;13.03;86.70;101589.97;5049404;28;20055;-77
2022/07/17 01:38:56;;;;;;;8.10;2.10;;;16.60;88.10;;;12.95;87.59;101595.44;5048481;28;20041;-77
2022/07/17 01:41:24;;;;;;;9.73;2.35;;;16.50;88.30;;;12.97;87.45;101598.84;5031787;28;20063;-77
2022/07/17 01:43:51;;;;;;;7.40;2.38;;;16.50;88.40;;;12.97;87.60;101593.41;5049693;28;20501;-77
2022/07/17 01:46:18;;;;;;;9.20;2.40;;;16.50;88.70;;;12.91;87.63;101589.47;5049206;28;20045;-78
2022/07/17 01:48:46;;;;;;;5.85;2.00;;;16.50;88.80;;;12.90;87.83;101594.06;5048779;28;20041;-77
2022/07/17 01:51:13;;;;;;;5.30;2.10;;;16.50;88.80;;;12.87;88.77;101596.28;5049324;28;20057;-77
2022/07/17 01:53:40;;;;;;;5.57;1.95;;;16.50;89.00;;;12.81;88.57;101596.97;5049293;28;20041;-78
2022/07/17 01:56:09;;;;;;;5.65;2.35;;;16.40;89.10;;;12.76;88.87;101597.50;5049273;28;20049;-78
2022/07/17 01:58:36;;;;;;;8.40;2.50;;;16.40;89.30;;;12.71;89.02;101588.97;5048362;28;20045;-77
2022/07/17 02:01:03;;;;;;;5.53;2.20;;;16.40;89.40;;;12.73;89.26;101586.06;5031045;28;20099;-78
2022/07/17 02:03:31;;;;;;;8.45;2.38;;;16.30;89.40;;;12.73;88.85;101584.19;5049175;28;20041;-78
2022/07/17 02:05:58;;;;;;;8.27;2.25;;;16.30;89.40;;;12.66;89.06;101583.16;5049208;28;20132;-78
2022/07/17 02:08:25;;;;;;;6.65;2.15;;;16.30;89.30;;;12.66;89.49;101591.34;5049326;28;20044;-78
2022/07/17 02:10:52;;;;;;;6.15;2.25;;;16.30;89.50;;;12.64;89.80;101585.22;5052848;28;20095;-78
2022/07/17 02:13:21;;;;;;;4.75;2.15;;;16.20;89.70;;;12.59;89.82;101582.16;5052812;28;20049;-77
2022/07/17 02:15:48;;;;;;;5.10;2.42;;;16.20;89.60;;;12.57;90.23;101578.75;5052848;28;20041;-78
2022/07/17 02:18:15;;;;;;;6.15;2.45;;;16.20;89.90;;;12.54;90.20;101584.56;5052347;28;20041;-78
2022/07/17 02:20:46;;;;;;;5.68;2.17;;;16.20;89.90;;;12.50;90.33;101590.34;5052282;28;20045;-77
2022/07/17 02:23:13;;;;;;;6.75;2.38;;;16.10;89.90;;;12.47;90.57;101582.53;5052784;28;20057;-77
2022/07/17 02:25:40;;;;;;;4.68;2.28;;;16.10;90.00;;;12.49;90.81;101585.09;5052918;28;20040;-77
2022/07/17 02:28:08;;;;;;;5.80;2.05;;;16.10;90.20;;;12.46;90.94;101582.69;5052416;28;20139;-77
2022/07/17 02:30:36;;;;;;;8.57;2.42;;;16.10;90.30;;;12.45;91.26;101581.84;5051883;28;20045;-77
2022/07/17 02:33:04;;;;;;;9.07;2.53;;;16.10;90.50;;;12.44;90.98;101574.66;5052497;28;20137;-77
2022/07/17 02:35:31;;;;;;;9.00;2.65;;;16.10;90.30;;;12.42;90.92;101579.44;5034399;28;20421;-77
2022/07/17 02:37:58;;;;;;;7.40;2.20;;;16.00;90.20;;;12.39;91.72;101577.03;5052376;28;20087;-77
2022/07/17 02:40:25;;;;;;;6.13;2.30;;;16.10;90.70;;;12.38;91.51;101586.25;5051338;28;20045;-77
2022/07/17 02:42:52;;;;;;;6.40;2.22;;;16.00;90.50;;;12.33;92.19;101584.03;5052344;28;20056;-77
2022/07/17 02:45:24;;;;;;;6.50;2.40;;;16.00;90.90;;;12.36;91.79;101588.31;5052399;28;20131;-77
2022/07/17 02:47:54;;;;;;;5.78;2.40;;;16.00;91.00;;;12.32;92.10;101592.41;5052440;28;20041;-78
2022/07/17 02:50:22;;;;;;;8.02;3.00;;;16.00;91.00;;;12.30;91.92;101592.56;5051432;28;20049;-78
2022/07/17 02:52:50;;;;;;;6.53;2.55;;;16.00;91.10;;;12.26;92.16;101593.94;5052048;28;20417;-77
2022/07/17 02:55:17;;;;;;;5.18;2.35;;;15.90;91.00;;;12.29;92.18;101592.75;5052150;28;20126;-77
2022/07/17 02:57:46;;;;;;;7.68;2.33;;;15.90;91.10;;;12.22;92.50;101588.97;5052132;28;20121;-78
2022/07/17 03:00:16;;;;;;;5.85;2.50;;;15.90;91.10;;;12.20;92.52;101586.41;5051086;28;20130;-77
2022/07/17 03:02:44;;;;;;;9.02;3.10;;;15.90;91.40;;;12.21;92.80;101584.56;5034004;28;20747;-78
2022/07/17 03:05:14;;;;;;;6.55;2.60;;;15.90;91.50;;;12.17;92.90;101577.72;5051907;28;20033;-77
2022/07/17 03:07:43;;;;;;;6.45;2.50;;;15.80;91.30;;;12.13;93.13;101588.97;5033812;28;20053;-77
2022/07/17 03:10:11;;;;;;;5.40;2.70;;;15.80;91.70;;;12.13;93.26;101591.69;5038716;28;20050;-78
2022/07/17 03:12:38;;;;;;;5.03;2.47;;;15.80;91.80;;;12.10;93.65;101599.38;5031979;28;20052;-77
2022/07/17 03:15:06;;;;;;;6.63;2.80;;;15.80;91.80;;;12.08;93.71;101596.81;5031970;28;20052;-77
2022/07/17 03:17:33;;;;;;;7.13;2.72;;;15.70;91.90;;;12.06;93.99;101598.00;5031964;28;20141;-77
2022/07/17 03:20:01;;;;;;;7.30;3.03;;;15.70;92.10;;;12.05;93.84;101594.44;5029789;28;20402;-78
2022/07/17 03:22:30;;;;;;;5.63;2.55;;;15.70;92.10;;;12.04;94.13;101600.88;5032578;28;20041;-77
2022/07/17 03:24:57;;;;;;;7.78;3.00;;;15.70;92.20;;;12.03;93.89;101596.47;5049728;28;20039;-78
2022/07/17 03:27:24;;;;;;;5.88;2.67;;;15.60;92.00;;;12.01;93.88;101603.09;5051734;28;20447;-78
2022/07/17 03:29:52;;;;;;;7.30;3.00;;;15.60;91.90;;;11.98;93.99;101601.56;5050689;28;20059;-78
2022/07/17 03:32:20;;;;;;;6.65;2.65;;;15.60;92.10;;;12.00;93.86;101604.97;5051383;28;20048;-77
2022/07/17 03:34:48;;;;;;;7.03;2.60;;;15.60;92.10;;;11.98;94.18;101607.03;5051265;28;20049;-77
2022/07/17 03:37:15;;;;;;;5.65;2.53;;;15.60;92.10;;;11.99;94.39;101611.44;5051293;28;20726;-78
2022/07/17 03:39:44;;;;;;;6.57;2.60;;;15.60;92.30;;;11.96;94.45;101606.34;5050380;28;20402;-78
2022/07/17 03:42:11;;;;;;;5.05;2.35;;;15.50;92.40;;;11.98;94.49;101608.91;5051563;28;20041;-78
2022/07/17 03:44:38;;;;;;;5.57;2.33;;;15.50;92.60;;;11.99;94.30;101608.72;5051166;28;20045;-78
2022/07/17 03:47:05;;;;;;;7.20;2.80;;;15.50;92.70;;;12.00;94.58;101618.63;5051110;28;20052;-78
2022/07/17 03:49:33;;;;;;;5.85;2.53;;;15.50;92.80;;;11.93;94.49;101615.69;5050266;28;20087;-78
2022/07/17 03:52:00;;;;;;;7.72;2.50;;;15.50;92.60;;;11.88;94.82;101617.19;5050887;28;20049;-78
2022/07/17 03:54:27;;;;;;;7.32;2.50;;;15.50;92.60;;;11.86;94.98;101617.38;5050978;28;20489;-78
2022/07/17 03:56:55;;;;;;;8.80;2.83;;;15.50;92.70;;;11.91;95.17;101616.88;5050968;28;20557;-77
2022/07/17 03:59:23;;;;;;;9.30;2.92;;;15.40;92.80;;;11.93;94.82;101615.69;5049989;28;20047;-78
2022/07/17 04:01:50;;;;;;;6.55;2.60;;;15.50;93.00;;;11.93;94.63;101610.22;5074478;22;20114;-79
2022/07/17 04:04:17;;;;;;;7.18;3.08;;;15.40;92.70;;;12.00;94.63;101607.72;5062644;28;20122;-80
2022/07/17 04:06:44;;;;;;;5.07;2.33;;;15.50;93.00;;;12.01;94.59;101601.22;5070714;28;20048;-79
2022/07/17 04:09:11;;;;;;;5.65;2.70;;;15.40;92.90;;;12.04;95.10;101603.63;5069728;28;20519;-80
2022/07/17 04:11:38;;;;;;;5.75;2.75;;;15.40;93.20;;;12.10;94.66;101602.94;5061653;28;20045;-79
2022/07/17 04:14:07;;;;;;;4.65;2.28;;;15.40;93.30;;;12.16;94.61;101608.75;5050613;28;20040;-80
2022/07/17 04:16:34;;;;;;;6.28;2.50;;;15.50;93.40;;;12.21;94.41;101600.94;5050467;28;20044;-79
2022/07/17 04:19:01;;;;;;;8.50;2.50;;;15.50;93.40;;;12.25;94.27;101597.69;5049567;28;20509;-79
2022/07/17 04:21:28;;;;;;;5.15;2.50;;;15.50;93.60;;;12.31;94.48;101602.44;5050425;28;20040;-79
2022/07/17 04:23:56;;;;;;;6.43;2.75;;;15.50;93.70;;;12.45;94.34;101595.50;5050482;28;20045;-80
2022/07/17 04:26:23;;;;;;;6.32;2.95;;;15.50;93.80;;;12.55;93.95;101603.50;5050430;28;20087;-80
2022/07/17 04:28:50;;;;;;;7.32;2.80;;;15.60;93.90;;;12.60;94.03;101594.78;5049628;28;20413;-79
2022/07/17 04:31:19;;;;;;;6.95;2.67;;;15.60;93.90;;;12.64;93.97;101596.16;5050418;28;20120;-79
2022/07/17 04:33:46;;;;;;;11.35;3.33;;;15.60;94.00;;;12.70;94.00;101601.78;5050260;28;20436;-79
2022/07/17 04:36:13;;;;;;;6.70;2.90;;;15.60;94.30;;;12.80;93.75;101601.59;5050222;28;20040;-79
2022/07/17 04:38:40;;;;;;;8.00;3.50;;;15.60;94.40;;;12.93;92.36;101602.94;5049600;28;20163;-79
2022/07/17 04:41:07;;;;;;;11.60;3.58;;;15.70;94.20;;;13.04;91.86;101608.03;5050125;28;20119;-80
2022/07/17 04:43:35;;;;;;;6.90;3.40;;;15.70;93.80;;;13.18;91.49;101610.06;5050269;28;20469;-79
2022/07/17 04:46:11;;;;;;;7.03;3.50;;;15.80;93.60;;;13.26;90.91;101604.56;5032406;28;20128;-79
2022/07/17 04:48:42;;;;;;;8.48;2.85;;;15.90;93.60;;;13.38;90.80;101606.97;5049183;28;20040;-79
2022/07/17 04:51:14;;;;;;;6.50;3.15;;;15.90;93.30;;;13.54;90.27;101597.88;5050270;28;20072;-80
2022/07/17 04:53:44;;;;;;;7.68;3.40;;;16.00;93.20;;;13.67;89.41;101598.16;5050076;28;20125;-79
2022/07/17 04:56:13;;;;;;;6.88;3.05;;;16.10;93.00;;;13.82;88.81;101604.56;5032126;28;20049;-80
2022/07/17 04:58:48;;;;;;;7.72;3.80;;;16.10;93.20;;;14.02;87.94;101607.69;5049168;28;20502;-79
2022/07/17 05:01:17;;;;;;;8.10;3.55;;;16.20;92.70;;;14.23;87.14;101606.19;5031801;28;20052;-80
2022/07/17 05:03:49;;;;;;;14.77;4.13;;;16.30;92.70;;;14.40;86.12;101612.41;5032162;28;20214;-79
2022/07/17 05:06:16;;;;;;;7.82;3.65;;;16.40;92.30;;;14.41;85.80;101616.81;5049873;28;20076;-80
2022/07/17 05:08:52;;;;;;;6.95;3.67;;;16.50;92.10;;;14.39;85.54;101614.28;5049144;28;20057;-79
2022/07/17 05:11:19;;;;;;;6.18;3.30;;;16.50;91.80;;;14.45;86.71;101629.16;5049182;28;20037;-80
2022/07/17 05:13:47;;;;;;;9.32;3.30;;;16.60;92.40;;;14.39;87.84;101622.50;5031877;28;20473;-80
2022/07/17 05:16:18;;;;;;;8.23;3.17;;;16.60;93.00;;;14.47;86.54;101633.41;5032137;28;20040;-80
2022/07/17 05:18:52;;;;;;;6.53;3.10;;;16.60;92.50;;;14.61;85.88;101636.41;5030975;28;20412;-80
2022/07/17 05:21:19;;;;;;;8.27;2.80;;;16.70;92.30;;;14.74;86.33;101638.53;5031786;28;20036;-80
2022/07/17 05:23:53;;;;;;;6.93;2.72;;;16.70;92.70;;;14.88;83.87;101634.97;5049710;28;20074;-79
2022/07/17 05:26:29;;;;;;;6.63;2.90;;;16.80;92.00;;;15.01;84.33;101645.28;5049937;28;20048;-80
2022/07/17 05:28:56;;;;;;;6.68;2.60;;;16.80;92.00;;;15.08;84.08;101648.13;5030726;28;20408;-79
2022/07/17 05:31:24;;;;;;;6.43;2.85;;;16.90;91.90;;;15.09;83.53;101647.94;5049502;28;20041;-80
2022/07/17 05:33:52;;;;;;;9.15;3.05;;;16.90;92.10;;;15.16;82.72;101654.41;5052167;28;20102;-80
2022/07/17 05:36:21;;;;;;;6.82;2.80;;;17.00;91.40;;;15.24;81.48;101647.97;5049703;28;20037;-79
2022/07/17 05:38:53;;;;;;;8.18;2.40;;;17.00;90.80;;;15.36;81.30;101656.59;5048713;28;20578;-79
2022/07/17 05:41:20;;;;;;;8.60;2.38;;;17.10;90.90;;;15.34;81.04;101655.91;5049301;28;20053;-79
2022/07/17 05:43:47;;;;;;;9.50;2.75;;;17.10;90.50;;;15.40;80.44;101652.41;5051128;28;20041;-79
2022/07/17 05:46:14;;;;;;;10.50;3.15;;;17.10;90.50;;;15.44;80.96;101649.13;5053510;28;20069;-79
2022/07/17 05:48:41;;;;;;;11.38;3.15;;;17.20;90.50;;;15.44;81.68;101645.53;5052608;28;20040;-80
2022/07/17 05:51:10;;;;;;;8.45;2.70;;;17.20;90.80;;;15.52;79.54;101645.44;5053342;28;20048;-79
2022/07/17 05:53:37;;;;;;;12.05;2.90;;;17.30;89.90;;;15.59;79.11;101638.16;5053542;28;20135;-80
2022/07/17 05:56:05;;;;;;;7.63;2.80;;;17.30;89.70;;;15.78;78.68;101641.38;5052270;28;20065;-79
2022/07/17 05:58:32;;;;;;;7.20;2.67;;;17.40;89.60;;;16.92;74.05;101641.53;5052699;28;20159;-79
2022/07/17 06:00:59;;;;;;;7.07;2.63;;;17.50;88.80;;;19.89;64.43;101631.59;5052870;28;20079;-80
2022/07/17 06:03:28;;;;;;;5.53;2.47;;;17.70;88.20;;;21.29;57.21;101616.75;5053337;28;20090;-79
2022/07/17 06:05:58;;;;;;;7.32;2.40;;;18.00;87.00;;;20.07;58.99;101627.28;5053387;28;20052;-80
2022/07/17 06:08:26;;;;;;;6.28;2.30;;;18.40;85.10;;;20.24;58.95;101624.84;5052401;28;20041;-80
2022/07/17 06:10:53;;;;;;;11.50;3.05;;;18.90;83.60;;;22.06;54.12;101626.53;5053034;28;20476;-80
2022/07/17 06:13:21;;;;;;;8.43;2.58;;;19.30;81.90;;;25.86;44.44;101612.06;5052998;28;20049;-80
2022/07/17 06:15:48;;;;;;;6.55;2.60;;;19.70;79.70;;;28.13;38.77;101604.28;5052851;28;20051;-80
2022/07/17 06:18:15;;;;;;;8.98;2.45;;;20.20;78.70;;;29.22;35.56;101599.28;5052605;28;20087;-80
2022/07/17 06:20:42;;;;;;;8.20;2.50;;;20.50;77.30;;;29.45;34.09;101602.59;5052243;28;20493;-80
2022/07/17 06:23:09;;;;;;;7.80;2.33;;;20.80;75.90;;;29.61;33.39;101601.41;5052723;28;20051;-80
2022/07/17 06:25:38;;;;;;;6.90;2.22;;;21.00;74.50;;;30.04;32.54;101600.94;5052851;28;20049;-80
2022/07/17 06:28:06;;;;;;;6.47;1.92;;;21.10;74.80;;;30.52;31.40;101603.19;5052597;28;20413;-80
2022/07/17 06:30:33;;;;;;;8.02;2.38;;;21.20;73.90;;;28.91;33.88;101601.28;5051791;28;20036;-80
2022/07/17 06:33:00;;;;;;;6.60;2.20;;;21.20;75.10;;;24.89;41.93;101612.34;5052467;28;20045;-80
2022/07/17 06:35:30;;;;;;;6.43;2.08;;;21.20;75.80;;;22.73;45.64;101618.09;5052488;28;20132;-80
2022/07/17 06:37:57;;;;;;;9.20;2.25;;;21.20;74.60;;;21.60;49.41;101623.25;5052501;28;20045;-79
2022/07/17 06:40:25;;;;;;;6.13;2.47;;;21.10;74.90;;;20.89;53.66;101616.31;5051547;28;20056;-80
2022/07/17 06:42:55;;;;;;;8.18;2.10;;;21.10;75.50;;;20.57;54.13;101621.84;5052309;28;20516;-80
2022/07/17 06:45:30;;;;;;;10.27;2.45;;;21.00;75.90;;;20.39;54.18;101616.22;5052325;28;20041;-80
2022/07/17 06:47:58;;;;;;;8.93;2.20;;;21.10;75.00;;;20.21;55.76;101620.59;5034801;28;20059;-80
2022/07/17 06:50:25;;;;;;;7.20;2.42;;;21.00;76.10;;;20.06;55.96;101634.69;5051293;28;20485;-79
2022/07/17 06:52:52;;;;;;;10.02;2.20;;;21.00;75.30;;;19.91;57.48;101637.78;5052114;28;20044;-80
2022/07/17 06:55:20;;;;;;;5.57;2.08;;;20.90;75.70;;;19.91;59.13;101635.00;5050796;28;20041;-80
2022/07/17 06:57:49;;;;;;;6.50;2.30;;;20.90;77.10;;;19.99;60.59;101631.16;5052060;28;20540;-79
2022/07/17 07:00:18;;;;;;;6.45;1.98;;;20.90;78.40;;;19.91;59.68;101632.25;5051065;28;20655;-80
2022/07/17 07:02:45;;;;;;;8.10;2.20;;;20.90;78.30;;;19.85;58.29;101624.81;5051780;28;20045;-79
2022/07/17 07:05:12;;;;;;;8.98;2.00;;;20.80;77.00;;;19.80;59.24;101629.28;5052135;28;20052;-79
2022/07/17 07:07:39;;;;;;;6.10;1.90;;;20.80;77.10;;;19.84;60.42;101630.56;5051883;28;20521;-79
2022/07/17 07:10:08;;;;;;;7.15;2.00;;;20.70;78.10;;;19.92;59.16;101627.56;5050997;28;20123;-79
2022/07/17 07:12:35;;;;;;;8.48;1.77;;;20.70;78.10;;;20.02;61.22;101633.44;5051676;28;20536;-79
2022/07/17 07:15:03;;;;;;;8.00;2.63;;;20.80;79.60;;;19.98;58.32;101631.34;5051706;28;20061;-80
2022/07/17 07:17:31;;;;;;;6.88;2.25;;;20.70;77.30;;;19.82;57.86;101624.41;5050259;28;20056;-79
2022/07/17 07:19:59;;;;;;;5.63;2.00;;;20.70;76.60;;;19.93;58.66;101623.72;5047209;28;20592;-78
2022/07/17 07:22:26;;;;;;;4.82;1.90;;;20.70;77.50;;;20.03;62.75;101623.22;5051672;28;20051;-78
2022/07/17 07:24:56;;;;;;;8.90;2.17;;;20.80;80.40;;;19.91;58.08;101615.66;5051363;28;20131;-78
2022/07/17 07:27:23;;;;;;;6.38;1.95;;;20.80;76.80;;;19.94;60.15;101608.00;5051738;28;20092;-78
2022/07/17 07:29:53;;;;;;;4.88;1.83;;;20.70;77.90;;;19.97;59.52;101602.00;5050596;28;20095;-78
2022/07/17 07:32:21;;;;;;;7.82;2.05;;;20.70;77.20;;;19.97;58.07;101607.53;5033427;28;20501;-78
2022/07/17 07:34:49;;;;;;;8.60;1.90;;;20.70;76.80;;;19.95;57.85;101610.53;5053804;28;20116;-78
2022/07/17 07:37:17;;;;;;;5.85;1.92;;;20.70;76.10;;;19.90;58.15;101625.00;5051384;28;20508;-78
2022/07/17 07:39:44;;;;;;;5.60;1.85;;;20.70;76.90;;;20.00;60.64;101624.53;5050340;28;20052;-78
2022/07/17 07:42:12;;;;;;;6.18;1.67;;;20.70;78.10;;;20.14;62.04;101613.41;5051263;28;20045;-78
2022/07/17 07:44:39;;;;;;;5.63;1.65;;;20.80;80.10;;;20.27;58.63;101614.16;5051219;28;20052;-78
2022/07/17 07:47:06;;;;;;;5.95;1.73;;;20.80;78.50;;;20.38;60.30;101620.06;5051138;28;20041;-78
2022/07/17 07:49:33;;;;;;;4.78;1.70;;;20.80;78.90;;;20.47;60.85;101621.50;5050393;28;20135;-78
2022/07/17 07:52:03;;;;;;;5.70;2.00;;;20.90;79.90;;;20.46;55.92;101619.78;5050743;28;20036;-78
2022/07/17 07:54:30;;;;;;;7.32;2.05;;;20.90;76.10;;;20.52;59.00;101627.19;5050880;28;20045;-78
2022/07/17 07:56:57;;;;;;;5.88;1.55;;;20.90;77.90;;;20.61;57.43;101638.88;5049492;28;20140;-78
2022/07/17 07:59:24;;;;;;;5.65;1.60;;;21.00;76.80;;;20.71;56.34;101636.44;5050052;28;20060;-78
2022/07/17 08:01:52;;;;;;;5.75;1.45;;;21.00;76.20;;;20.76;55.72;101644.94;5050650;28;20127;-78
2022/07/17 08:04:19;;;;;;;7.18;1.58;;;21.10;75.90;;;20.79;54.90;101640.84;5050790;28;20049;-78
2022/07/17 08:06:46;;;;;;;6.55;1.52;;;21.10;75.40;;;20.82;55.11;101640.41;5050571;28;20052;-78
2022/07/17 08:09:15;;;;;;;7.63;2.03;;;21.10;75.20;;;20.94;55.11;101657.97;5049918;28;20043;-78
2022/07/17 08:11:42;;;;;;;6.00;2.10;;;21.20;76.20;;;20.91;53.75;101647.38;5050661;28;20043;-78
2022/07/17 08:14:09;;;;;;;6.15;1.80;;;21.20;74.30;;;20.97;53.65;101646.44;5050543;28;20052;-78
2022/07/17 08:16:37;;;;;;;7.50;1.60;;;21.20;73.80;;;21.05;55.27;101648.09;5050618;28;20051;-78
2022/07/17 08:19:04;;;;;;;9.32;1.70;;;21.20;75.30;;;21.20;57.00;101650.50;5049507;28;20472;-78
2022/07/17 08:21:31;;;;;;;8.98;1.75;;;21.30;78.30;;;21.27;57.11;101656.84;5050462;28;20128;-78
2022/07/17 08:23:58;;;;;;;6.07;1.25;;;21.40;77.60;;;21.34;57.49;101660.38;5050496;28;20053;-78
2022/07/17 08:26:27;;;;;;;6.95;1.70;;;21.50;78.00;;;21.42;56.20;101660.09;5050407;28;20053;-78
2022/07/17 08:28:54;;;;;;;5.68;1.80;;;21.50;77.10;;;21.43;56.18;101650.69;5049607;28;20045;-78
2022/07/17 08:31:21;;;;;;;7.30;1.60;;;21.50;76.90;;;21.52;57.62;101658.75;5050167;28;20068;-78
2022/07/17 08:33:48;;;;;;;6.75;1.73;;;21.60;78.30;;;21.50;54.58;101658.97;5050140;28;20045;-78
2022/07/17 08:36:16;;;;;;;6.25;1.45;;;21.60;75.20;;;21.47;54.38;101651.94;5048898;28;20143;-78
2022/07/17 08:38:43;;;;;;;8.48;1.58;;;21.60;74.60;;;21.55;56.09;101647.19;5049478;28;20049;-78
2022/07/17 08:41:11;;;;;;;6.20;1.65;;;21.70;76.60;;;21.60;54.97;101644.59;5049859;28;20041;-78
2022/07/17 08:43:41;;;;;;;6.15;1.65;;;21.70;75.80;;;21.65;53.31;101653.06;5050028;28;20048;-78
2022/07/17 08:46:11;;;;;;;6.53;1.70;;;21.70;74.80;;;21.52;54.16;101647.66;5048550;28;20475;-78
2022/07/17 08:48:40;;;;;;;6.03;1.67;;;21.70;74.20;;;21.50;53.50;101649.81;5049287;28;20051;-78
2022/07/17 08:51:09;;;;;;;5.45;1.58;;;21.70;73.90;;;21.55;53.43;101649.97;5049827;28;20049;-78
2022/07/17 08:53:36;;;;;;;6.85;2.05;;;21.80;73.70;;;21.59;51.52;101648.41;5049916;28;20135;-78
2022/07/17 08:56:04;;;;;;;4.63;1.42;;;21.80;73.10;;;21.53;51.26;101643.81;5049902;28;20068;-78
2022/07/17 08:58:33;;;;;;;6.40;2.17;;;21.80;72.70;;;21.51;51.92;101652.34;5049029;28;20489;-78
2022/07/17 09:01:04;;;;;;;10.43;2.00;;;21.80;72.10;;;21.56;54.95;101649.75;5049493;28;20052;-79
2022/07/17 09:03:31;;;;;;;6.18;1.85;;;21.80;75.00;;;21.70;56.90;101649.59;5049755;28;20059;-78
2022/07/17 09:05:58;;;;;;;6.28;1.50;;;21.90;77.30;;;21.74;53.65;101645.28;5049777;28;20049;-78
2022/07/17 09:08:27;;;;;;;6.80;1.73;;;21.90;74.20;;;21.75;52.51;101647.81;5049024;28;20055;-78
2022/07/17 09:10:54;;;;;;;7.57;1.52;;;22.00;72.70;;;21.77;52.41;101640.13;5049490;28;20044;-78
2022/07/17 09:13:24;;;;;;;6.75;2.13;;;22.00;72.90;;;21.72;53.82;101650.19;5047996;28;20053;-78
2022/07/17 09:15:54;;;;;;;4.65;1.63;;;22.00;74.00;;;21.67;51.80;101642.59;5049540;28;20697;-78
2022/07/17 09:18:23;;;;;;;5.55;2.00;;;22.00;71.80;;;21.71;51.82;101641.03;5048417;28;20045;-79
2022/07/17 09:20:53;;;;;;;8.52;2.00;;;22.00;72.20;;;21.75;51.81;101639.50;5049387;28;20045;-79
2022/07/17 09:23:22;;;;;;;7.72;1.88;;;22.00;72.70;;;21.76;50.10;101638.44;5049571;28;20045;-78
2022/07/17 09:25:52;;;;;;;7.55;1.60;;;22.00;70.70;;;21.63;50.69;101639.44;5049553;28;20041;-79
2022/07/17 09:28:21;;;;;;;6.40;1.83;;;22.00;70.50;;;21.67;52.85;101634.28;5049168;28;20037;-78
2022/07/17 09:30:52;;;;;;;7.25;2.17;;;22.00;72.80;;;21.80;53.30;101636.88;5049339;28;20866;-78
2022/07/17 09:33:22;;;;;;;6.47;1.75;;;22.00;73.30;;;21.85;52.67;101631.47;5049532;28;20047;-78
2022/07/17 09:35:51;;;;;;;4.50;1.60;;;22.10;72.60;;;21.80;51.77;101636.88;5049584;28;20458;-79
2022/07/17 09:38:31;;;;;;;7.38;1.90;;;22.10;72.40;;;21.83;54.05;101632.78;5051522;28;20069;-78
2022/07/17 09:41:15;;;;;;;6.88;1.75;;;22.10;73.90;;;21.79;52.28;101632.41;5049427;28;20672;-78
2022/07/17 09:43:46;;;;;;;8.35;1.90;;;22.20;72.10;;;21.83;51.47;101628.09;5049479;28;20041;-79
2022/07/17 09:46:17;;;;;;;8.60;2.08;;;22.10;70.70;;;21.98;52.78;101632.41;5049429;28;20041;-78
2022/07/17 09:48:51;;;;;;;8.23;2.30;;;22.20;72.90;;;21.93;50.61;101637.78;5048590;28;20451;-79
2022/07/17 09:51:27;;;;;;;7.32;2.28;;;22.20;70.70;;;21.80;51.10;101627.72;5049220;28;20041;-79
2022/07/17 09:53:59;;;;;;;9.85;2.35;;;22.10;70.10;;;21.78;49.33;101633.50;5049543;28;20102;-79
2022/07/17 09:56:28;;;;;;;5.88;1.70;;;22.20;69.30;;;21.89;50.43;101636.56;5049435;28;20049;-78
2022/07/17 09:59:01;;;;;;;7.50;1.98;;;22.20;70.10;;;21.78;49.42;101629.88;5048392;28;20072;-79
2022/07/17 10:01:28;;;;;;;6.38;1.83;;;22.20;68.80;;;21.73;51.17;101633.34;5031137;28;20493;-79
2022/07/17 10:03:57;;;;;;;7.88;1.88;;;22.20;70.50;;;21.78;51.52;101633.50;5049167;28;20049;-78
2022/07/17 10:06:26;;;;;;;8.90;1.90;;;22.20;70.80;;;21.79;49.57;101629.63;5049281;28;20095;-79
2022/07/17 10:08:55;;;;;;;6.10;2.05;;;22.20;68.80;;;21.77;49.45;101629.03;5048385;28;20057;-79
2022/07/17 10:11:24;;;;;;;6.70;2.35;;;22.20;68.70;;;21.76;48.70;101632.91;5048889;28;20052;-79
2022/07/17 10:13:55;;;;;;;8.88;2.30;;;22.10;67.90;;;21.77;47.35;101629.03;5049097;28;20524;-79
2022/07/17 10:16:27;;;;;;;5.68;1.80;;;22.20;67.10;;;21.78;48.55;101640.94;5049109;28;20079;-79